sensor_id;sensor_type;location;lat;lon;timestamp;temperature;humidity
69359;HTU21D;56520;49.066;8.660;2022-11-24T00:01:08;7.99;89.81
69359;HTU21D;56520;49.066;8.660;2022-11-24T00:03:34;7.94;89.73
69359;HTU21D;56520;49.066;8.660;2022-11-24T00:06:07;7.88;89.85
69359;HTU21D;56520;49.066;8.660;2022-11-24T00:08:34;7.79;90.11
69359;HTU21D;56520;49.066;8.660;2022-11-24T00:11:08;7.72;90.20
69359;HTU21D;56520;49.066;8.660;2022-11-24T00:13:34;7.72;90.49
69359;HTU21D;56520;49.066;8.660;2022-11-24T00:16:07;7.77;90.34
69359;HTU21D;56520;49.066;8.660;2022-11-24T00:18:33;7.78;90.17
69359;HTU21D;56520;49.066;8.660;2022-11-24T00:20:58;7.70;90.19
69359;HTU21D;56520;49.066;8.660;2022-11-24T00:23:24;7.76;90.20
69359;HTU21D;56520;49.066;8.660;2022-11-24T00:25:49;7.77;89.85
69359;HTU21D;56520;49.066;8.660;2022-11-24T00:28:14;7.84;89.73
69359;HTU21D;56520;49.066;8.660;2022-11-24T00:30:40;7.89;89.53
69359;HTU21D;56520;49.066;8.660;2022-11-24T00:33:05;7.93;89.27
69359;HTU21D;56520;49.066;8.660;2022-11-24T00:35:31;8.13;88.15
69359;HTU21D;56520;49.066;8.660;2022-11-24T00:37:56;8.19;87.84
69359;HTU21D;56520;49.066;8.660;2022-11-24T00:40:21;8.31;87.09
69359;HTU21D;56520;49.066;8.660;2022-11-24T00:42:47;8.29;87.28
69359;HTU21D;56520;49.066;8.660;2022-11-24T00:45:13;8.50;86.17
69359;HTU21D;56520;49.066;8.660;2022-11-24T00:47:38;8.60;85.74
69359;HTU21D;56520;49.066;8.660;2022-11-24T00:50:04;8.73;85.35
69359;HTU21D;56520;49.066;8.660;2022-11-24T00:52:29;8.78;85.00
69359;HTU21D;56520;49.066;8.660;2022-11-24T00:55:00;8.92;84.30
69359;HTU21D;56520;49.066;8.660;2022-11-24T00:57:25;8.90;84.51
69359;HTU21D;56520;49.066;8.660;2022-11-24T00:59:51;8.94;84.29
69359;HTU21D;56520;49.066;8.660;2022-11-24T01:02:16;8.97;84.23
69359;HTU21D;56520;49.066;8.660;2022-11-24T01:04:41;8.98;84.25
69359;HTU21D;56520;49.066;8.660;2022-11-24T01:07:07;9.05;83.76
69359;HTU21D;56520;49.066;8.660;2022-11-24T01:09:32;9.06;83.81
69359;HTU21D;56520;49.066;8.660;2022-11-24T01:11:58;9.02;84.19
69359;HTU21D;56520;49.066;8.660;2022-11-24T01:14:26;8.95;84.49
69359;HTU21D;56520;49.066;8.660;2022-11-24T01:16:53;9.02;83.93
69359;HTU21D;56520;49.066;8.660;2022-11-24T01:19:19;9.06;83.89
69359;HTU21D;56520;49.066;8.660;2022-11-24T01:21:44;9.01;84.25
69359;HTU21D;56520;49.066;8.660;2022-11-24T01:24:11;9.05;83.91
69359;HTU21D;56520;49.066;8.660;2022-11-24T01:26:36;9.24;82.60
69359;HTU21D;56520;49.066;8.660;2022-11-24T01:29:03;9.22;83.13
69359;HTU21D;56520;49.066;8.660;2022-11-24T01:31:28;9.20;83.19
69359;HTU21D;56520;49.066;8.660;2022-11-24T01:33:54;9.17;83.35
69359;HTU21D;56520;49.066;8.660;2022-11-24T01:36:19;9.25;82.53
69359;HTU21D;56520;49.066;8.660;2022-11-24T01:38:45;9.26;82.63
69359;HTU21D;56520;49.066;8.660;2022-11-24T01:43:43;9.31;82.29
69359;HTU21D;56520;49.066;8.660;2022-11-24T01:46:32;9.35;81.97
69359;HTU21D;56520;49.066;8.660;2022-11-24T01:51:41;9.26;82.23
69359;HTU21D;56520;49.066;8.660;2022-11-24T01:54:11;9.33;81.88
69359;HTU21D;56520;49.066;8.660;2022-11-24T01:56:39;9.34;81.91
69359;HTU21D;56520;49.066;8.660;2022-11-24T01:59:08;9.25;82.17
69359;HTU21D;56520;49.066;8.660;2022-11-24T02:01:34;9.27;81.97
69359;HTU21D;56520;49.066;8.660;2022-11-24T02:04:02;9.31;81.98
69359;HTU21D;56520;49.066;8.660;2022-11-24T02:06:31;9.39;81.71
69359;HTU21D;56520;49.066;8.660;2022-11-24T02:09:10;9.37;81.78
69359;HTU21D;56520;49.066;8.660;2022-11-24T02:11:38;9.34;82.03
69359;HTU21D;56520;49.066;8.660;2022-11-24T02:14:06;9.32;82.14
69359;HTU21D;56520;49.066;8.660;2022-11-24T02:16:34;9.33;82.13
69359;HTU21D;56520;49.066;8.660;2022-11-24T02:19:02;9.30;82.23
69359;HTU21D;56520;49.066;8.660;2022-11-24T02:21:29;9.26;82.45
69359;HTU21D;56520;49.066;8.660;2022-11-24T02:24:14;9.25;82.66
69359;HTU21D;56520;49.066;8.660;2022-11-24T02:26:45;9.25;82.37
69359;HTU21D;56520;49.066;8.660;2022-11-24T02:29:12;9.26;82.39
69359;HTU21D;56520;49.066;8.660;2022-11-24T02:31:40;9.21;82.68
69359;HTU21D;56520;49.066;8.660;2022-11-24T02:34:07;9.21;82.65
69359;HTU21D;56520;49.066;8.660;2022-11-24T02:36:33;9.23;82.49
69359;HTU21D;56520;49.066;8.660;2022-11-24T02:38:58;9.26;82.55
69359;HTU21D;56520;49.066;8.660;2022-11-24T02:41:27;9.35;82.08
69359;HTU21D;56520;49.066;8.660;2022-11-24T02:43:58;9.31;82.44
69359;HTU21D;56520;49.066;8.660;2022-11-24T02:46:25;9.22;82.81
69359;HTU21D;56520;49.066;8.660;2022-11-24T02:48:51;9.19;83.09
69359;HTU21D;56520;49.066;8.660;2022-11-24T02:51:17;9.17;83.10
69359;HTU21D;56520;49.066;8.660;2022-11-24T02:53:42;9.15;83.00
69359;HTU21D;56520;49.066;8.660;2022-11-24T02:56:07;9.12;83.20
69359;HTU21D;56520;49.066;8.660;2022-11-24T02:58:33;9.06;83.31
69359;HTU21D;56520;49.066;8.660;2022-11-24T03:00:58;9.01;83.45
69359;HTU21D;56520;49.066;8.660;2022-11-24T03:03:25;9.00;83.41
69359;HTU21D;56520;49.066;8.660;2022-11-24T03:05:50;8.98;83.59
69359;HTU21D;56520;49.066;8.660;2022-11-24T03:08:16;9.00;83.46
69359;HTU21D;56520;49.066;8.660;2022-11-24T03:10:42;8.98;83.29
69359;HTU21D;56520;49.066;8.660;2022-11-24T03:13:08;9.00;83.21
69359;HTU21D;56520;49.066;8.660;2022-11-24T03:15:33;8.95;83.43
69359;HTU21D;56520;49.066;8.660;2022-11-24T03:17:59;8.94;83.61
69359;HTU21D;56520;49.066;8.660;2022-11-24T03:20:24;8.95;83.61
69359;HTU21D;56520;49.066;8.660;2022-11-24T03:22:50;8.94;83.61
69359;HTU21D;56520;49.066;8.660;2022-11-24T03:25:16;8.93;83.72
69359;HTU21D;56520;49.066;8.660;2022-11-24T03:27:41;8.90;83.85
69359;HTU21D;56520;49.066;8.660;2022-11-24T03:30:07;8.94;83.73
69359;HTU21D;56520;49.066;8.660;2022-11-24T03:32:33;8.95;83.71
69359;HTU21D;56520;49.066;8.660;2022-11-24T03:34:58;8.94;83.69
69359;HTU21D;56520;49.066;8.660;2022-11-24T03:37:24;8.89;83.74
69359;HTU21D;56520;49.066;8.660;2022-11-24T03:39:49;8.82;83.89
69359;HTU21D;56520;49.066;8.660;2022-11-24T03:42:15;8.85;83.80
69359;HTU21D;56520;49.066;8.660;2022-11-24T03:44:41;8.76;84.03
69359;HTU21D;56520;49.066;8.660;2022-11-24T03:47:06;8.83;83.95
69359;HTU21D;56520;49.066;8.660;2022-11-24T03:49:32;8.85;83.88
69359;HTU21D;56520;49.066;8.660;2022-11-24T03:51:57;8.83;83.84
69359;HTU21D;56520;49.066;8.660;2022-11-24T03:54:22;8.83;84.03
69359;HTU21D;56520;49.066;8.660;2022-11-24T03:56:48;8.87;83.72
69359;HTU21D;56520;49.066;8.660;2022-11-24T03:59:13;8.92;83.32
69359;HTU21D;56520;49.066;8.660;2022-11-24T04:01:39;8.87;83.57
69359;HTU21D;56520;49.066;8.660;2022-11-24T04:04:04;8.87;83.47
69359;HTU21D;56520;49.066;8.660;2022-11-24T04:06:30;8.89;83.54
69359;HTU21D;56520;49.066;8.660;2022-11-24T04:08:55;8.89;83.52
69359;HTU21D;56520;49.066;8.660;2022-11-24T04:11:21;8.87;83.55
69359;HTU21D;56520;49.066;8.660;2022-11-24T04:14:05;8.85;83.67
69359;HTU21D;56520;49.066;8.660;2022-11-24T04:16:33;8.81;83.78
69359;HTU21D;56520;49.066;8.660;2022-11-24T04:18:59;8.79;83.87
69359;HTU21D;56520;49.066;8.660;2022-11-24T04:21:24;8.79;84.02
69359;HTU21D;56520;49.066;8.660;2022-11-24T04:23:49;8.75;84.13
69359;HTU21D;56520;49.066;8.660;2022-11-24T04:26:15;8.74;84.19
69359;HTU21D;56520;49.066;8.660;2022-11-24T04:28:40;8.77;84.10
69359;HTU21D;56520;49.066;8.660;2022-11-24T04:31:06;8.79;84.11
69359;HTU21D;56520;49.066;8.660;2022-11-24T04:33:32;8.82;83.90
69359;HTU21D;56520;49.066;8.660;2022-11-24T04:35:57;8.85;83.77
69359;HTU21D;56520;49.066;8.660;2022-11-24T04:38:23;8.86;83.74
69359;HTU21D;56520;49.066;8.660;2022-11-24T04:40:48;8.87;83.65
69359;HTU21D;56520;49.066;8.660;2022-11-24T04:43:14;8.91;83.42
69359;HTU21D;56520;49.066;8.660;2022-11-24T04:45:43;8.93;83.23
69359;HTU21D;56520;49.066;8.660;2022-11-24T04:48:09;8.93;83.29
69359;HTU21D;56520;49.066;8.660;2022-11-24T04:50:35;8.94;83.10
69359;HTU21D;56520;49.066;8.660;2022-11-24T04:53:02;8.97;82.97
69359;HTU21D;56520;49.066;8.660;2022-11-24T04:55:27;8.96;82.83
69359;HTU21D;56520;49.066;8.660;2022-11-24T04:57:53;9.03;82.28
69359;HTU21D;56520;49.066;8.660;2022-11-24T05:00:18;9.04;82.16
69359;HTU21D;56520;49.066;8.660;2022-11-24T05:02:44;9.04;82.28
69359;HTU21D;56520;49.066;8.660;2022-11-24T05:05:09;9.06;81.97
69359;HTU21D;56520;49.066;8.660;2022-11-24T05:07:35;9.11;81.44
69359;HTU21D;56520;49.066;8.660;2022-11-24T05:10:01;9.05;81.94
69359;HTU21D;56520;49.066;8.660;2022-11-24T05:12:53;9.01;82.29
69359;HTU21D;56520;49.066;8.660;2022-11-24T05:15:19;9.04;82.09
69359;HTU21D;56520;49.066;8.660;2022-11-24T05:17:44;9.01;82.39
69359;HTU21D;56520;49.066;8.660;2022-11-24T05:20:10;8.98;82.53
69359;HTU21D;56520;49.066;8.660;2022-11-24T05:22:35;8.97;82.73
69359;HTU21D;56520;49.066;8.660;2022-11-24T05:25:01;8.95;82.82
69359;HTU21D;56520;49.066;8.660;2022-11-24T05:27:27;8.97;82.77
69359;HTU21D;56520;49.066;8.660;2022-11-24T05:29:52;9.10;81.81
69359;HTU21D;56520;49.066;8.660;2022-11-24T05:32:17;9.06;82.17
69359;HTU21D;56520;49.066;8.660;2022-11-24T05:34:43;9.05;82.48
69359;HTU21D;56520;49.066;8.660;2022-11-24T05:37:08;9.09;81.84
69359;HTU21D;56520;49.066;8.660;2022-11-24T05:39:35;9.08;82.13
69359;HTU21D;56520;49.066;8.660;2022-11-24T05:42:02;9.01;82.40
69359;HTU21D;56520;49.066;8.660;2022-11-24T05:44:48;9.00;82.58
69359;HTU21D;56520;49.066;8.660;2022-11-24T05:47:13;8.96;82.65
69359;HTU21D;56520;49.066;8.660;2022-11-24T05:49:39;8.98;82.65
69359;HTU21D;56520;49.066;8.660;2022-11-24T05:52:04;9.01;82.75
69359;HTU21D;56520;49.066;8.660;2022-11-24T05:54:29;8.96;83.15
69359;HTU21D;56520;49.066;8.660;2022-11-24T05:56:55;9.02;83.79
69359;HTU21D;56520;49.066;8.660;2022-11-24T05:59:20;9.01;83.88
69359;HTU21D;56520;49.066;8.660;2022-11-24T06:01:46;8.93;84.23
69359;HTU21D;56520;49.066;8.660;2022-11-24T06:04:12;8.79;84.47
69359;HTU21D;56520;49.066;8.660;2022-11-24T06:06:37;8.74;84.96
69359;HTU21D;56520;49.066;8.660;2022-11-24T06:09:02;8.72;85.60
69359;HTU21D;56520;49.066;8.660;2022-11-24T06:11:29;8.72;85.65
69359;HTU21D;56520;49.066;8.660;2022-11-24T06:13:54;8.70;85.95
69359;HTU21D;56520;49.066;8.660;2022-11-24T06:16:20;8.62;86.02
69359;HTU21D;56520;49.066;8.660;2022-11-24T06:18:45;8.57;86.80
69359;HTU21D;56520;49.066;8.660;2022-11-24T06:21:11;8.56;87.32
69359;HTU21D;56520;49.066;8.660;2022-11-24T06:23:36;8.56;88.22
69359;HTU21D;56520;49.066;8.660;2022-11-24T06:26:02;8.52;88.28
69359;HTU21D;56520;49.066;8.660;2022-11-24T06:28:27;8.51;88.92
69359;HTU21D;56520;49.066;8.660;2022-11-24T06:30:53;8.49;89.54
69359;HTU21D;56520;49.066;8.660;2022-11-24T06:33:18;8.50;89.89
69359;HTU21D;56520;49.066;8.660;2022-11-24T06:35:44;8.52;90.09
69359;HTU21D;56520;49.066;8.660;2022-11-24T06:38:09;8.55;90.33
69359;HTU21D;56520;49.066;8.660;2022-11-24T06:40:35;8.59;90.70
69359;HTU21D;56520;49.066;8.660;2022-11-24T06:43:00;8.49;91.07
69359;HTU21D;56520;49.066;8.660;2022-11-24T06:45:26;8.50;91.45
69359;HTU21D;56520;49.066;8.660;2022-11-24T06:47:54;8.55;91.05
69359;HTU21D;56520;49.066;8.660;2022-11-24T06:50:21;8.70;90.92
69359;HTU21D;56520;49.066;8.660;2022-11-24T06:52:46;8.61;90.83
69359;HTU21D;56520;49.066;8.660;2022-11-24T06:55:12;8.57;91.26
69359;HTU21D;56520;49.066;8.660;2022-11-24T06:57:38;8.49;91.97
69359;HTU21D;56520;49.066;8.660;2022-11-24T07:00:05;8.47;91.78
69359;HTU21D;56520;49.066;8.660;2022-11-24T07:02:32;8.44;92.32
69359;HTU21D;56520;49.066;8.660;2022-11-24T07:04:57;8.52;91.95
69359;HTU21D;56520;49.066;8.660;2022-11-24T07:07:23;8.58;91.81
69359;HTU21D;56520;49.066;8.660;2022-11-24T07:09:48;8.55;91.89
69359;HTU21D;56520;49.066;8.660;2022-11-24T07:12:14;8.55;91.75
69359;HTU21D;56520;49.066;8.660;2022-11-24T07:14:39;8.49;92.04
69359;HTU21D;56520;49.066;8.660;2022-11-24T07:17:04;8.57;91.40
69359;HTU21D;56520;49.066;8.660;2022-11-24T07:19:30;8.46;91.68
69359;HTU21D;56520;49.066;8.660;2022-11-24T07:21:56;8.43;91.95
69359;HTU21D;56520;49.066;8.660;2022-11-24T07:24:21;8.44;91.69
69359;HTU21D;56520;49.066;8.660;2022-11-24T07:26:47;8.60;88.90
69359;HTU21D;56520;49.066;8.660;2022-11-24T07:29:12;8.61;89.13
69359;HTU21D;56520;49.066;8.660;2022-11-24T07:31:38;8.52;89.32
69359;HTU21D;56520;49.066;8.660;2022-11-24T07:34:03;8.52;88.70
69359;HTU21D;56520;49.066;8.660;2022-11-24T07:36:29;8.35;89.39
69359;HTU21D;56520;49.066;8.660;2022-11-24T07:38:54;8.36;88.88
69359;HTU21D;56520;49.066;8.660;2022-11-24T07:41:20;8.32;89.28
69359;HTU21D;56520;49.066;8.660;2022-11-24T07:43:46;8.33;89.24
69359;HTU21D;56520;49.066;8.660;2022-11-24T07:46:13;8.22;89.68
69359;HTU21D;56520;49.066;8.660;2022-11-24T07:48:39;8.32;89.10
69359;HTU21D;56520;49.066;8.660;2022-11-24T07:51:06;8.27;89.57
69359;HTU21D;56520;49.066;8.660;2022-11-24T07:53:32;8.19;89.73
69359;HTU21D;56520;49.066;8.660;2022-11-24T07:56:00;8.27;89.52
69359;HTU21D;56520;49.066;8.660;2022-11-24T07:58:27;8.31;88.60
69359;HTU21D;56520;49.066;8.660;2022-11-24T08:00:53;8.38;87.58
69359;HTU21D;56520;49.066;8.660;2022-11-24T08:03:19;8.47;86.58
69359;HTU21D;56520;49.066;8.660;2022-11-24T08:05:58;8.42;86.83
69359;HTU21D;56520;49.066;8.660;2022-11-24T08:08:24;8.37;86.94
69359;HTU21D;56520;49.066;8.660;2022-11-24T08:10:50;8.34;87.09
69359;HTU21D;56520;49.066;8.660;2022-11-24T08:13:16;8.31;87.17
69359;HTU21D;56520;49.066;8.660;2022-11-24T08:15:42;8.31;87.03
69359;HTU21D;56520;49.066;8.660;2022-11-24T08:18:07;8.28;86.78
69359;HTU21D;56520;49.066;8.660;2022-11-24T08:20:33;8.28;86.79
69359;HTU21D;56520;49.066;8.660;2022-11-24T08:22:59;8.28;86.96
69359;HTU21D;56520;49.066;8.660;2022-11-24T08:25:28;8.31;86.28
69359;HTU21D;56520;49.066;8.660;2022-11-24T08:27:58;8.34;86.35
69359;HTU21D;56520;49.066;8.660;2022-11-24T08:30:24;8.39;86.02
69359;HTU21D;56520;49.066;8.660;2022-11-24T08:32:50;8.43;85.96
69359;HTU21D;56520;49.066;8.660;2022-11-24T08:35:15;8.55;85.26
69359;HTU21D;56520;49.066;8.660;2022-11-24T08:37:41;8.52;85.25
69359;HTU21D;56520;49.066;8.660;2022-11-24T08:40:07;8.55;85.46
69359;HTU21D;56520;49.066;8.660;2022-11-24T08:42:32;8.63;85.06
69359;HTU21D;56520;49.066;8.660;2022-11-24T08:44:58;8.66;84.84
69359;HTU21D;56520;49.066;8.660;2022-11-24T08:47:23;8.74;84.04
69359;HTU21D;56520;49.066;8.660;2022-11-24T08:49:48;8.74;84.35
69359;HTU21D;56520;49.066;8.660;2022-11-24T08:52:15;8.68;85.12
69359;HTU21D;56520;49.066;8.660;2022-11-24T08:54:40;8.73;85.84
69359;HTU21D;56520;49.066;8.660;2022-11-24T08:57:08;8.78;85.16
69359;HTU21D;56520;49.066;8.660;2022-11-24T08:59:34;8.85;85.34
69359;HTU21D;56520;49.066;8.660;2022-11-24T09:01:59;8.95;85.02
69359;HTU21D;56520;49.066;8.660;2022-11-24T09:04:25;9.04;83.33
69359;HTU21D;56520;49.066;8.660;2022-11-24T09:06:50;9.00;83.73
69359;HTU21D;56520;49.066;8.660;2022-11-24T09:09:15;9.00;83.40
69359;HTU21D;56520;49.066;8.660;2022-11-24T09:11:42;8.92;83.97
69359;HTU21D;56520;49.066;8.660;2022-11-24T09:14:07;8.85;84.60
69359;HTU21D;56520;49.066;8.660;2022-11-24T09:16:35;8.89;84.41
69359;HTU21D;56520;49.066;8.660;2022-11-24T09:19:03;8.88;84.33
69359;HTU21D;56520;49.066;8.660;2022-11-24T09:21:31;8.87;85.04
69359;HTU21D;56520;49.066;8.660;2022-11-24T09:23:58;8.86;85.23
69359;HTU21D;56520;49.066;8.660;2022-11-24T09:26:26;8.91;85.00
69359;HTU21D;56520;49.066;8.660;2022-11-24T09:28:53;8.93;84.71
69359;HTU21D;56520;49.066;8.660;2022-11-24T09:31:21;8.93;84.77
69359;HTU21D;56520;49.066;8.660;2022-11-24T09:33:47;8.96;84.51
69359;HTU21D;56520;49.066;8.660;2022-11-24T09:36:12;8.97;84.56
69359;HTU21D;56520;49.066;8.660;2022-11-24T09:38:38;8.92;84.87
69359;HTU21D;56520;49.066;8.660;2022-11-24T09:49:16;9.12;85.24
69359;HTU21D;56520;49.066;8.660;2022-11-24T09:51:45;9.15;85.07
69359;HTU21D;56520;49.066;8.660;2022-11-24T09:54:18;9.19;85.29
69359;HTU21D;56520;49.066;8.660;2022-11-24T09:56:45;9.19;85.38
69359;HTU21D;56520;49.066;8.660;2022-11-24T09:59:14;9.20;85.17
69359;HTU21D;56520;49.066;8.660;2022-11-24T10:01:41;9.22;85.18
69359;HTU21D;56520;49.066;8.660;2022-11-24T10:04:37;9.12;85.87
69359;HTU21D;56520;49.066;8.660;2022-11-24T10:15:54;9.00;87.62
69359;HTU21D;56520;49.066;8.660;2022-11-24T10:18:45;9.55;85.71
69359;HTU21D;56520;49.066;8.660;2022-11-24T10:21:55;9.95;83.68
69359;HTU21D;56520;49.066;8.660;2022-11-24T10:27:46;10.52;82.39
69359;HTU21D;56520;49.066;8.660;2022-11-24T10:30:16;10.89;80.76
69359;HTU21D;56520;49.066;8.660;2022-11-24T10:32:44;11.22;78.03
69359;HTU21D;56520;49.066;8.660;2022-11-24T10:37:48;11.38;76.92
69359;HTU21D;56520;49.066;8.660;2022-11-24T10:40:44;11.37;76.89
69359;HTU21D;56520;49.066;8.660;2022-11-24T10:43:11;11.40;77.14
69359;HTU21D;56520;49.066;8.660;2022-11-24T10:45:38;11.41;77.75
69359;HTU21D;56520;49.066;8.660;2022-11-24T10:48:19;11.62;75.68
69359;HTU21D;56520;49.066;8.660;2022-11-24T10:50:46;11.54;77.21
69359;HTU21D;56520;49.066;8.660;2022-11-24T10:53:28;11.52;76.55
69359;HTU21D;56520;49.066;8.660;2022-11-24T10:58:28;11.43;77.08
69359;HTU21D;56520;49.066;8.660;2022-11-24T11:00:56;11.45;78.07
69359;HTU21D;56520;49.066;8.660;2022-11-24T11:03:22;11.59;77.27
69359;HTU21D;56520;49.066;8.660;2022-11-24T11:05:51;11.58;76.79
69359;HTU21D;56520;49.066;8.660;2022-11-24T11:10:45;11.56;76.16
69359;HTU21D;56520;49.066;8.660;2022-11-24T11:13:28;11.49;76.17
69359;HTU21D;56520;49.066;8.660;2022-11-24T11:15:55;11.41;76.68
69359;HTU21D;56520;49.066;8.660;2022-11-24T11:18:26;11.39;76.92
69359;HTU21D;56520;49.066;8.660;2022-11-24T11:20:56;11.38;77.53
69359;HTU21D;56520;49.066;8.660;2022-11-24T11:23:29;11.42;77.51
69359;HTU21D;56520;49.066;8.660;2022-11-24T11:31:25;11.59;75.21
69359;HTU21D;56520;49.066;8.660;2022-11-24T11:34:17;11.38;76.48
69359;HTU21D;56520;49.066;8.660;2022-11-24T11:36:48;11.23;77.47
69359;HTU21D;56520;49.066;8.660;2022-11-24T11:39:28;11.37;75.18
69359;HTU21D;56520;49.066;8.660;2022-11-24T11:45:27;11.37;76.41
69359;HTU21D;56520;49.066;8.660;2022-11-24T11:48:01;11.51;76.08
69359;HTU21D;56520;49.066;8.660;2022-11-24T12:11:44;11.75;74.05
69359;HTU21D;56520;49.066;8.660;2022-11-24T12:20:35;12.12;72.99
69359;HTU21D;56520;49.066;8.660;2022-11-24T12:23:19;11.89;73.93
69359;HTU21D;56520;49.066;8.660;2022-11-24T12:25:58;11.79;72.89
69359;HTU21D;56520;49.066;8.660;2022-11-24T12:34:13;11.91;72.79
69359;HTU21D;56520;49.066;8.660;2022-11-24T12:39:38;12.47;71.55
69359;HTU21D;56520;49.066;8.660;2022-11-24T12:50:29;13.35;67.32
69359;HTU21D;56520;49.066;8.660;2022-11-24T12:53:04;13.41;65.61
69359;HTU21D;56520;49.066;8.660;2022-11-24T12:55:32;13.37;66.74
69359;HTU21D;56520;49.066;8.660;2022-11-24T12:58:16;13.59;65.63
69359;HTU21D;56520;49.066;8.660;2022-11-24T13:03:31;13.77;66.31
69359;HTU21D;56520;49.066;8.660;2022-11-24T13:08:41;13.33;66.53
69359;HTU21D;56520;49.066;8.660;2022-11-24T13:13:58;12.70;68.22
69359;HTU21D;56520;49.066;8.660;2022-11-24T13:16:25;12.40;68.53
69359;HTU21D;56520;49.066;8.660;2022-11-24T13:18:59;12.02;69.57
69359;HTU21D;56520;49.066;8.660;2022-11-24T13:24:21;11.41;71.96
69359;HTU21D;56520;49.066;8.660;2022-11-24T13:26:52;11.27;71.85
69359;HTU21D;56520;49.066;8.660;2022-11-24T13:29:36;11.12;73.11
69359;HTU21D;56520;49.066;8.660;2022-11-24T13:58:37;12.06;68.20
69359;HTU21D;56520;49.066;8.660;2022-11-24T14:04:15;11.88;68.71
69359;HTU21D;56520;49.066;8.660;2022-11-24T14:06:44;11.75;70.07
69359;HTU21D;56520;49.066;8.660;2022-11-24T14:12:14;11.69;71.25
69359;HTU21D;56520;49.066;8.660;2022-11-24T14:14:41;11.67;71.14
69359;HTU21D;56520;49.066;8.660;2022-11-24T14:19:35;11.66;70.76
69359;HTU21D;56520;49.066;8.660;2022-11-24T14:22:01;11.62;70.95
69359;HTU21D;56520;49.066;8.660;2022-11-24T14:24:31;11.54;71.32
69359;HTU21D;56520;49.066;8.660;2022-11-24T14:26:57;11.44;71.59
69359;HTU21D;56520;49.066;8.660;2022-11-24T14:29:24;11.48;70.60
69359;HTU21D;56520;49.066;8.660;2022-11-24T14:31:54;11.42;70.57
69359;HTU21D;56520;49.066;8.660;2022-11-24T14:34:21;11.29;71.55
69359;HTU21D;56520;49.066;8.660;2022-11-24T14:36:48;11.20;71.95
69359;HTU21D;56520;49.066;8.660;2022-11-24T14:39:16;11.22;72.13
69359;HTU21D;56520;49.066;8.660;2022-11-24T14:42:34;11.36;71.33
69359;HTU21D;56520;49.066;8.660;2022-11-24T14:47:12;11.37;71.07
69359;HTU21D;56520;49.066;8.660;2022-11-24T14:49:40;11.27;71.90
69359;HTU21D;56520;49.066;8.660;2022-11-24T14:52:13;11.22;71.58
69359;HTU21D;56520;49.066;8.660;2022-11-24T14:54:57;11.15;71.93
69359;HTU21D;56520;49.066;8.660;2022-11-24T14:57:36;11.10;71.80
69359;HTU21D;56520;49.066;8.660;2022-11-24T15:02:41;10.83;72.22
69359;HTU21D;56520;49.066;8.660;2022-11-24T15:05:09;10.65;73.03
69359;HTU21D;56520;49.066;8.660;2022-11-24T15:07:36;10.45;73.69
69359;HTU21D;56520;49.066;8.660;2022-11-24T15:10:15;10.25;74.22
69359;HTU21D;56520;49.066;8.660;2022-11-24T15:12:49;10.07;74.81
69359;HTU21D;56520;49.066;8.660;2022-11-24T15:17:50;9.77;75.72
69359;HTU21D;56520;49.066;8.660;2022-11-24T15:20:34;9.62;76.08
69359;HTU21D;56520;49.066;8.660;2022-11-24T15:25:45;9.37;77.02
69359;HTU21D;56520;49.066;8.660;2022-11-24T15:28:10;9.34;77.32
69359;HTU21D;56520;49.066;8.660;2022-11-24T15:30:36;9.24;77.33
69359;HTU21D;56520;49.066;8.660;2022-11-24T15:33:09;9.12;77.52
69359;HTU21D;56520;49.066;8.660;2022-11-24T15:35:35;9.01;77.85
69359;HTU21D;56520;49.066;8.660;2022-11-24T15:38:01;8.90;78.19
69359;HTU21D;56520;49.066;8.660;2022-11-24T15:40:29;8.78;78.48
69359;HTU21D;56520;49.066;8.660;2022-11-24T15:42:58;8.67;78.81
69359;HTU21D;56520;49.066;8.660;2022-11-24T15:45:25;8.58;79.16
69359;HTU21D;56520;49.066;8.660;2022-11-24T15:47:56;8.46;79.32
69359;HTU21D;56520;49.066;8.660;2022-11-24T15:50:21;8.34;79.51
69359;HTU21D;56520;49.066;8.660;2022-11-24T15:52:47;8.22;79.82
69359;HTU21D;56520;49.066;8.660;2022-11-24T15:55:19;8.11;80.25
69359;HTU21D;56520;49.066;8.660;2022-11-24T15:57:45;8.01;80.47
69359;HTU21D;56520;49.066;8.660;2022-11-24T16:00:20;7.89;80.74
69359;HTU21D;56520;49.066;8.660;2022-11-24T16:02:47;7.77;81.06
69359;HTU21D;56520;49.066;8.660;2022-11-24T16:05:13;7.65;81.25
69359;HTU21D;56520;49.066;8.660;2022-11-24T16:07:39;7.52;81.61
69359;HTU21D;56520;49.066;8.660;2022-11-24T16:10:06;7.41;81.94
69359;HTU21D;56520;49.066;8.660;2022-11-24T16:12:32;7.28;82.25
69359;HTU21D;56520;49.066;8.660;2022-11-24T16:14:58;7.15;82.63
69359;HTU21D;56520;49.066;8.660;2022-11-24T16:17:23;7.08;82.84
69359;HTU21D;56520;49.066;8.660;2022-11-24T16:19:49;7.01;83.12
69359;HTU21D;56520;49.066;8.660;2022-11-24T16:22:16;6.96;83.78
69359;HTU21D;56520;49.066;8.660;2022-11-24T16:24:42;6.91;84.65
69359;HTU21D;56520;49.066;8.660;2022-11-24T16:27:07;6.84;84.93
69359;HTU21D;56520;49.066;8.660;2022-11-24T16:29:33;6.73;84.87
69359;HTU21D;56520;49.066;8.660;2022-11-24T16:31:58;6.65;84.95
69359;HTU21D;56520;49.066;8.660;2022-11-24T16:34:24;6.54;85.06
69359;HTU21D;56520;49.066;8.660;2022-11-24T16:36:49;6.44;85.07
69359;HTU21D;56520;49.066;8.660;2022-11-24T16:39:15;6.35;85.29
69359;HTU21D;56520;49.066;8.660;2022-11-24T16:41:40;6.24;85.45
69359;HTU21D;56520;49.066;8.660;2022-11-24T16:44:06;6.15;85.53
69359;HTU21D;56520;49.066;8.660;2022-11-24T16:46:31;6.09;85.71
69359;HTU21D;56520;49.066;8.660;2022-11-24T16:48:57;6.02;85.95
69359;HTU21D;56520;49.066;8.660;2022-11-24T16:51:28;5.99;86.90
69359;HTU21D;56520;49.066;8.660;2022-11-24T16:53:58;5.98;87.67
69359;HTU21D;56520;49.066;8.660;2022-11-24T16:56:25;5.98;88.50
69359;HTU21D;56520;49.066;8.660;2022-11-24T16:58:51;5.91;88.60
69359;HTU21D;56520;49.066;8.660;2022-11-24T17:01:18;5.79;88.41
69359;HTU21D;56520;49.066;8.660;2022-11-24T17:03:44;5.70;88.67
69359;HTU21D;56520;49.066;8.660;2022-11-24T17:06:11;5.61;88.44
69359;HTU21D;56520;49.066;8.660;2022-11-24T17:08:39;5.50;88.32
69359;HTU21D;56520;49.066;8.660;2022-11-24T17:11:12;5.41;88.44
69359;HTU21D;56520;49.066;8.660;2022-11-24T17:13:38;5.31;88.59
69359;HTU21D;56520;49.066;8.660;2022-11-24T17:16:05;5.24;88.86
69359;HTU21D;56520;49.066;8.660;2022-11-24T17:18:31;5.18;89.25
69359;HTU21D;56520;49.066;8.660;2022-11-24T17:20:57;5.18;90.23
69359;HTU21D;56520;49.066;8.660;2022-11-24T17:23:23;5.11;90.52
69359;HTU21D;56520;49.066;8.660;2022-11-24T17:25:48;5.02;90.55
69359;HTU21D;56520;49.066;8.660;2022-11-24T17:28:14;4.95;90.65
69359;HTU21D;56520;49.066;8.660;2022-11-24T17:30:39;4.90;90.92
69359;HTU21D;56520;49.066;8.660;2022-11-24T17:33:05;4.83;91.09
69359;HTU21D;56520;49.066;8.660;2022-11-24T17:35:32;4.72;91.13
69359;HTU21D;56520;49.066;8.660;2022-11-24T17:37:58;4.61;91.19
69359;HTU21D;56520;49.066;8.660;2022-11-24T17:40:25;4.52;91.21
69359;HTU21D;56520;49.066;8.660;2022-11-24T17:42:50;4.43;91.23
69359;HTU21D;56520;49.066;8.660;2022-11-24T17:45:15;4.37;91.42
69359;HTU21D;56520;49.066;8.660;2022-11-24T17:47:41;4.32;91.55
69359;HTU21D;56520;49.066;8.660;2022-11-24T17:50:07;4.27;91.55
69359;HTU21D;56520;49.066;8.660;2022-11-24T17:52:32;4.22;91.71
69359;HTU21D;56520;49.066;8.660;2022-11-24T17:54:58;4.18;91.91